createdAt,value
2023-06-11T00:00:55.397Z,17.85
2023-06-11T00:01:52.755Z,17.33
2023-06-11T00:02:55.395Z,15.15
2023-06-11T00:03:53.850Z,15.50
2023-06-11T00:04:51.090Z,20.17
2023-06-11T00:05:48.716Z,13.23
2023-06-11T00:06:46.585Z,15.07
2023-06-11T00:07:43.517Z,17.73
2023-06-11T00:08:40.552Z,21.60
2023-06-11T00:09:37.583Z,19.90
2023-06-11T00:10:34.541Z,15.27
2023-06-11T00:11:31.470Z,17.30
2023-06-11T00:12:28.732Z,14.60
2023-06-11T00:13:25.990Z,16.77
2023-06-11T00:14:24.955Z,16.85
2023-06-11T00:15:22.058Z,22.90
2023-06-11T00:16:19.034Z,20.42
2023-06-11T00:17:16.056Z,19.92
2023-06-11T00:18:13.441Z,20.52
2023-06-11T00:19:10.653Z,14.60
2023-06-11T00:20:11.240Z,17.30
2023-06-11T00:22:06.465Z,17.08
2023-06-11T00:23:03.491Z,17.50
2023-06-11T00:24:00.709Z,13.50
2023-06-11T00:24:57.678Z,17.40
2023-06-11T00:25:54.604Z,16.58
2023-06-11T00:26:51.658Z,14.18
2023-06-11T00:27:48.619Z,16.90
2023-06-11T00:28:45.601Z,13.25
2023-06-11T00:29:42.563Z,16.73
2023-06-11T00:30:39.478Z,15.27
2023-06-11T00:31:36.549Z,16.85
2023-06-11T00:32:35.084Z,16.73
2023-06-11T00:33:32.079Z,14.60
2023-06-11T00:34:29.066Z,14.77
2023-06-11T00:35:26.029Z,14.25
2023-06-11T00:36:22.931Z,18.15
2023-06-11T00:37:19.840Z,22.27
2023-06-11T00:38:20.584Z,14.73
2023-06-11T00:39:17.967Z,17.48
2023-06-11T00:40:14.882Z,19.35
2023-06-11T00:41:11.780Z,16.92
2023-06-11T00:42:11.529Z,16.65
2023-06-11T00:43:08.846Z,15.27
2023-06-11T00:44:06.734Z,21.05
2023-06-11T00:45:07.577Z,18.30
2023-06-11T00:46:12.024Z,15.07
2023-06-11T00:47:10.168Z,17.77
2023-06-11T00:48:07.427Z,15.45
2023-06-11T00:49:04.437Z,15.48
2023-06-11T00:50:03.629Z,17.20
2023-06-11T00:51:00.897Z,15.88
2023-06-11T00:51:58.905Z,19.23
2023-06-11T00:52:56.175Z,17.92
2023-06-11T00:53:54.774Z,16.65
2023-06-11T00:54:54.392Z,15.98
2023-06-11T00:55:51.299Z,15.07
2023-06-11T00:56:48.198Z,15.82
2023-06-11T00:57:45.096Z,17.50
2023-06-11T00:58:42.055Z,20.08
2023-06-11T00:59:40.006Z,21.85
2023-06-11T01:00:37.491Z,16.75
2023-06-11T01:01:43.070Z,22.37
2023-06-11T01:02:46.423Z,17.60
2023-06-11T01:03:44.498Z,17.10
2023-06-11T01:04:43.264Z,17.83
2023-06-11T01:05:45.686Z,20.80
2023-06-11T01:06:47.553Z,18.90
2023-06-11T01:07:51.962Z,20.75
2023-06-11T01:08:54.473Z,15.85
2023-06-11T01:09:52.140Z,21.67
2023-06-11T01:10:50.747Z,20.02
2023-06-11T01:11:50.393Z,22.87
2023-06-11T01:12:47.425Z,22.17
2023-06-11T01:13:44.564Z,17.10
2023-06-11T01:14:41.480Z,24.77
2023-06-11T01:15:38.419Z,19.37
2023-06-11T01:16:46.411Z,18.05
2023-06-11T01:17:56.250Z,16.52
2023-06-11T01:19:05.028Z,15.45
2023-06-11T01:20:38.882Z,18.27
2023-06-11T01:21:46.523Z,20.20
2023-06-11T01:22:55.836Z,15.50
2023-06-11T01:23:57.458Z,16.60
2023-06-11T01:25:31.820Z,18.83
2023-06-11T01:27:19.136Z,17.40
2023-06-11T01:28:21.111Z,15.98
2023-06-11T01:29:21.783Z,15.35
2023-06-11T01:31:16.996Z,15.05
2023-06-11T01:32:16.004Z,18.20
2023-06-11T01:33:15.272Z,14.13
2023-06-11T01:34:14.662Z,16.80
2023-06-11T01:35:11.847Z,15.85
2023-06-11T01:36:09.239Z,16.30
2023-06-11T01:37:06.655Z,16.90
2023-06-11T01:38:03.801Z,16.60
2023-06-11T01:39:02.854Z,15.80
2023-06-11T01:40:00.507Z,14.80
2023-06-11T01:41:00.246Z,15.65
2023-06-11T01:41:57.722Z,18.48
2023-06-11T01:42:56.133Z,15.80
2023-06-11T01:43:53.045Z,22.50
2023-06-11T01:44:49.975Z,19.15
2023-06-11T01:45:46.896Z,14.18
2023-06-11T01:46:43.902Z,18.58
2023-06-11T01:47:41.847Z,14.50
2023-06-11T01:48:38.835Z,22.70
2023-06-11T01:49:35.922Z,19.83
2023-06-11T01:50:34.038Z,18.95
2023-06-11T01:51:30.974Z,18.52
2023-06-11T01:52:27.921Z,20.60
2023-06-11T01:53:24.982Z,18.83
2023-06-11T01:54:21.885Z,20.92
2023-06-11T01:55:18.840Z,17.67
2023-06-11T01:56:15.748Z,18.20
2023-06-11T01:57:13.368Z,17.75
2023-06-11T01:58:10.430Z,16.52
2023-06-11T01:59:07.885Z,17.65
2023-06-11T02:00:09.346Z,14.40
2023-06-11T02:01:06.324Z,24.37
2023-06-11T02:02:03.392Z,21.52
2023-06-11T02:03:03.359Z,14.80
2023-06-11T02:04:00.688Z,23.27
2023-06-11T02:04:57.745Z,15.00
2023-06-11T02:05:54.764Z,15.43
2023-06-11T02:06:51.957Z,19.00
2023-06-11T02:07:48.881Z,15.65
2023-06-11T02:08:45.824Z,15.13
2023-06-11T02:09:42.840Z,20.62
2023-06-11T02:10:39.763Z,17.02
2023-06-11T02:11:36.671Z,14.25
2023-06-11T02:12:33.638Z,19.98
2023-06-11T02:13:32.081Z,18.25
2023-06-11T02:14:29.071Z,18.15
2023-06-11T02:15:27.042Z,18.17
2023-06-11T02:16:23.987Z,17.15
2023-06-11T02:17:21.357Z,18.60
2023-06-11T02:18:18.282Z,15.73
2023-06-11T02:19:15.192Z,18.87
2023-06-11T02:20:13.400Z,19.20
2023-06-11T02:21:10.366Z,16.05
2023-06-11T02:22:07.328Z,20.83
2023-06-11T02:23:05.123Z,19.20
2023-06-11T02:24:02.165Z,17.90
2023-06-11T02:24:59.041Z,14.95
2023-06-11T02:25:55.993Z,17.10
2023-06-11T02:26:53.026Z,16.65
2023-06-11T02:27:53.005Z,21.65
2023-06-11T02:28:49.956Z,17.60
2023-06-11T02:29:46.849Z,14.77
2023-06-11T02:30:43.758Z,15.40
2023-06-11T02:31:40.883Z,16.70
2023-06-11T02:32:37.918Z,18.10
2023-06-11T02:33:34.948Z,18.67
2023-06-11T02:34:31.936Z,21.05
2023-06-11T02:35:28.855Z,15.23
2023-06-11T02:36:25.808Z,15.48
2023-06-11T02:37:22.734Z,17.58
2023-06-11T02:38:19.643Z,19.42
2023-06-11T02:39:16.693Z,17.30
2023-06-11T02:40:13.809Z,16.27
2023-06-11T02:41:10.833Z,15.88
2023-06-11T02:42:07.953Z,17.23
2023-06-11T02:43:04.893Z,18.17
2023-06-11T02:44:01.890Z,16.92
2023-06-11T02:44:58.904Z,18.45
2023-06-11T02:45:55.886Z,17.23
2023-06-11T02:46:52.974Z,17.65
2023-06-11T02:47:49.960Z,15.55
2023-06-11T02:48:46.955Z,20.02
2023-06-11T02:49:43.856Z,19.42
2023-06-11T02:50:40.923Z,15.50
2023-06-11T02:51:37.944Z,15.70
2023-06-11T02:52:34.959Z,14.85
2023-06-11T02:53:31.887Z,16.40
2023-06-11T02:54:28.856Z,18.87
2023-06-11T02:55:26.744Z,17.98
2023-06-11T02:56:23.755Z,15.95
2023-06-11T02:57:20.689Z,15.18
2023-06-11T02:58:17.653Z,19.17
2023-06-11T02:59:14.678Z,19.37
2023-06-11T03:00:12.365Z,15.90
2023-06-11T03:01:09.368Z,19.65
2023-06-11T03:02:06.481Z,17.23
2023-06-11T03:03:03.537Z,17.27
2023-06-11T03:04:00.746Z,17.00
2023-06-11T03:04:57.709Z,16.67
2023-06-11T03:05:54.647Z,14.52
2023-06-11T03:06:51.585Z,17.48
2023-06-11T03:07:48.517Z,17.65
2023-06-11T03:08:45.489Z,19.70
2023-06-11T03:09:42.454Z,15.68
2023-06-11T03:10:39.432Z,14.98
2023-06-11T03:11:36.898Z,16.25
2023-06-11T03:12:33.962Z,17.52
2023-06-11T03:13:30.987Z,18.77
2023-06-11T03:14:27.966Z,18.02
2023-06-11T03:15:24.872Z,15.32
2023-06-11T03:16:21.848Z,20.58
2023-06-11T03:17:18.927Z,18.77
2023-06-11T03:18:16.491Z,16.45
2023-06-11T03:19:13.441Z,19.95
2023-06-11T03:20:10.907Z,17.20
2023-06-11T03:21:07.855Z,21.08
2023-06-11T03:22:05.030Z,23.75
2023-06-11T03:23:03.483Z,15.85
2023-06-11T03:24:00.535Z,16.80
2023-06-11T03:24:57.469Z,14.90
2023-06-11T03:25:54.416Z,14.80
2023-06-11T03:26:51.340Z,18.80
2023-06-11T03:27:48.395Z,17.98
2023-06-11T03:28:45.409Z,19.23
2023-06-11T03:29:42.338Z,16.95
2023-06-11T03:30:39.264Z,20.50
2023-06-11T03:31:36.836Z,18.85
2023-06-11T03:32:33.876Z,17.87
2023-06-11T03:33:30.746Z,16.77
2023-06-11T03:34:27.664Z,19.77
2023-06-11T03:35:24.586Z,20.10
2023-06-11T03:36:21.560Z,16.27
2023-06-11T03:37:19.264Z,15.90
2023-06-11T03:38:16.216Z,16.08
2023-06-11T03:39:13.185Z,19.20
2023-06-11T03:40:10.435Z,17.77
2023-06-11T03:41:08.610Z,19.08
2023-06-11T03:42:05.824Z,17.23
2023-06-11T03:43:02.756Z,21.42
2023-06-11T03:43:59.863Z,17.40
2023-06-11T03:44:57.134Z,15.90
2023-06-11T03:45:54.099Z,18.10
2023-06-11T03:46:51.293Z,15.82
2023-06-11T03:47:53.432Z,16.08
2023-06-11T03:48:50.602Z,19.45
2023-06-11T03:49:47.574Z,15.85
2023-06-11T03:50:44.534Z,16.17
2023-06-11T03:51:41.546Z,16.98
2023-06-11T03:52:38.590Z,15.77
2023-06-11T03:53:35.761Z,20.45
2023-06-11T03:54:32.635Z,15.40
2023-06-11T03:55:31.096Z,16.08
2023-06-11T03:56:28.153Z,16.08
2023-06-11T03:57:25.126Z,16.35
2023-06-11T03:58:22.063Z,16.30
2023-06-11T03:59:18.974Z,15.35
2023-06-11T04:00:16.560Z,17.40
2023-06-11T04:01:13.676Z,19.70
2023-06-11T04:02:10.662Z,16.12
2023-06-11T04:03:07.685Z,18.35
2023-06-11T04:04:04.874Z,15.43
2023-06-11T04:05:02.513Z,15.30
2023-06-11T04:05:59.524Z,16.85
2023-06-11T04:06:56.506Z,19.27
2023-06-11T04:07:53.453Z,20.05
2023-06-11T04:08:50.366Z,15.70
2023-06-11T04:09:47.292Z,18.48
2023-06-11T04:10:44.730Z,15.50
2023-06-11T04:11:41.705Z,15.90
2023-06-11T04:12:38.615Z,15.70
2023-06-11T04:13:35.712Z,17.33
2023-06-11T04:14:32.723Z,18.27
2023-06-11T04:15:29.891Z,15.27
2023-06-11T04:16:26.836Z,16.02
2023-06-11T04:17:23.903Z,21.02
2023-06-11T04:18:20.957Z,17.33
2023-06-11T04:19:19.513Z,15.05
2023-06-11T04:20:16.639Z,14.43
2023-06-11T04:21:13.545Z,20.02
2023-06-11T04:22:10.549Z,16.02
2023-06-11T04:23:07.957Z,16.40
2023-06-11T04:24:08.344Z,15.00
2023-06-11T04:25:08.358Z,15.73
2023-06-11T04:26:05.467Z,15.57
2023-06-11T04:27:02.413Z,15.57
2023-06-11T04:27:59.532Z,18.58
2023-06-11T04:28:57.795Z,15.77
2023-06-11T04:29:57.553Z,15.63
2023-06-11T04:30:58.827Z,14.30
2023-06-11T04:31:56.354Z,16.92
2023-06-11T04:32:56.555Z,21.30
2023-06-11T04:33:57.284Z,15.75
2023-06-11T04:34:58.296Z,16.02
2023-06-11T04:35:57.417Z,18.05
2023-06-11T04:36:54.633Z,17.35
2023-06-11T04:37:51.694Z,15.32
2023-06-11T04:38:50.018Z,14.75
2023-06-11T04:39:47.225Z,14.40
2023-06-11T04:40:44.175Z,14.90
2023-06-11T04:41:41.165Z,13.88
2023-06-11T04:42:41.792Z,20.40
2023-06-11T04:44:37.781Z,13.85
2023-06-11T04:45:35.355Z,16.87
2023-06-11T04:46:35.958Z,15.52
2023-06-11T04:48:36.116Z,13.82
2023-06-11T04:49:33.863Z,14.77
2023-06-11T04:50:32.992Z,14.65
2023-06-11T04:51:34.318Z,13.73
2023-06-11T04:52:44.190Z,17.25
2023-06-11T04:53:41.174Z,13.98
2023-06-11T04:54:38.413Z,20.48
2023-06-11T04:55:39.939Z,15.40
2023-06-11T04:56:37.159Z,13.57
2023-06-11T04:57:34.090Z,15.00
2023-06-11T04:58:31.828Z,15.55
2023-06-11T04:59:28.794Z,14.75
2023-06-11T05:00:25.766Z,15.02
2023-06-11T05:01:22.761Z,14.77
2023-06-11T05:02:19.773Z,16.02
2023-06-11T05:03:18.244Z,14.57
2023-06-11T05:04:15.905Z,13.45
2023-06-11T05:05:14.486Z,14.30
2023-06-11T05:06:14.855Z,13.32
2023-06-11T05:07:12.138Z,13.75
2023-06-11T05:08:09.051Z,15.32
2023-06-11T05:09:05.978Z,13.77
2023-06-11T05:10:02.966Z,13.88
2023-06-11T05:10:59.916Z,13.20
2023-06-11T05:11:56.820Z,16.23
2023-06-11T05:12:53.768Z,14.98
2023-06-11T05:13:50.690Z,16.67
2023-06-11T05:14:47.621Z,12.90
2023-06-11T05:15:44.576Z,21.27
2023-06-11T05:16:42.274Z,13.70
2023-06-11T05:17:39.569Z,16.92
2023-06-11T05:18:37.061Z,15.52
2023-06-11T05:19:34.100Z,13.38
2023-06-11T05:20:31.346Z,12.50
2023-06-11T05:21:28.368Z,13.10
2023-06-11T05:22:25.356Z,14.57
2023-06-11T05:23:30.273Z,13.85
2023-06-11T05:24:30.499Z,18.33
2023-06-11T05:25:30.627Z,15.88
2023-06-11T05:26:32.998Z,12.73
2023-06-11T05:27:30.857Z,15.23
2023-06-11T05:28:28.029Z,13.23
2023-06-11T05:29:25.641Z,13.13
2023-06-11T05:30:26.924Z,14.20
2023-06-11T05:31:25.306Z,12.45
2023-06-11T05:32:23.104Z,12.95
2023-06-11T05:33:20.162Z,13.50
2023-06-11T05:34:17.101Z,12.75
2023-06-11T05:35:14.414Z,15.90
2023-06-11T05:36:11.947Z,13.82
2023-06-11T05:37:08.896Z,12.23
2023-06-11T05:38:07.593Z,12.77
2023-06-11T05:39:04.787Z,11.75
2023-06-11T05:40:01.663Z,13.45
2023-06-11T05:40:58.673Z,12.85
2023-06-11T05:41:55.721Z,17.70
2023-06-11T05:42:52.708Z,12.35
2023-06-11T05:43:49.716Z,13.27
2023-06-11T05:44:46.645Z,13.35
2023-06-11T05:45:50.678Z,13.35
2023-06-11T05:46:47.743Z,11.77
2023-06-11T05:47:44.926Z,12.73
2023-06-11T05:48:42.474Z,11.68
2023-06-11T05:49:39.507Z,12.32
2023-06-11T05:50:36.598Z,10.82
2023-06-11T05:51:33.962Z,11.05
2023-06-11T05:52:31.395Z,11.12
2023-06-11T05:53:28.348Z,11.88
2023-06-11T05:54:25.276Z,11.00
2023-06-11T05:55:22.455Z,12.13
2023-06-11T05:56:19.378Z,10.50
2023-06-11T05:57:20.534Z,13.20
2023-06-11T05:58:17.432Z,12.05
2023-06-11T05:59:14.478Z,11.00
2023-06-11T06:00:13.908Z,11.73
2023-06-11T06:01:13.620Z,10.80
2023-06-11T06:02:10.671Z,11.53
2023-06-11T06:03:08.132Z,10.77
2023-06-11T06:04:05.657Z,10.35
2023-06-11T06:05:02.840Z,11.38
2023-06-11T06:06:01.091Z,11.05
2023-06-11T06:06:58.053Z,13.55
2023-06-11T06:07:55.022Z,13.88
2023-06-11T06:08:52.036Z,10.95
2023-06-11T06:09:48.946Z,10.07
2023-06-11T06:10:45.892Z,11.52
2023-06-11T06:11:42.922Z,11.70
2023-06-11T06:12:39.834Z,11.32
2023-06-11T06:13:36.725Z,11.20
2023-06-11T06:14:33.894Z,10.15
2023-06-11T06:15:30.933Z,13.25
2023-06-11T06:16:29.056Z,10.35
2023-06-11T06:17:26.260Z,13.45
2023-06-11T06:18:24.159Z,9.82
2023-06-11T06:19:21.564Z,12.35
2023-06-11T06:20:18.508Z,15.10
2023-06-11T06:21:15.600Z,9.82
2023-06-11T06:22:12.649Z,10.60
2023-06-11T06:23:10.708Z,9.73
2023-06-11T06:24:07.938Z,11.07
2023-06-11T06:25:05.364Z,12.27
2023-06-11T06:26:05.264Z,9.77
2023-06-11T06:27:02.197Z,16.92
2023-06-11T06:27:59.155Z,12.15
2023-06-11T06:28:56.636Z,9.40
2023-06-11T06:29:53.787Z,12.07
2023-06-11T06:30:51.404Z,11.38
2023-06-11T06:31:48.339Z,12.10
2023-06-11T06:32:45.428Z,10.18
2023-06-11T06:33:42.498Z,9.88
2023-06-11T06:34:39.460Z,10.52
2023-06-11T06:35:36.650Z,12.82
2023-06-11T06:36:33.817Z,11.12
2023-06-11T06:37:31.202Z,9.57
2023-06-11T06:38:28.286Z,9.30
2023-06-11T06:39:25.404Z,10.65
2023-06-11T06:40:22.510Z,10.20
2023-06-11T06:41:19.781Z,9.15
2023-06-11T06:42:16.723Z,10.18
2023-06-11T06:43:13.649Z,15.90
2023-06-11T06:44:10.665Z,9.77
2023-06-11T06:45:08.386Z,10.40
2023-06-11T06:46:05.551Z,8.80
2023-06-11T06:47:02.635Z,14.27
2023-06-11T06:47:59.616Z,11.02
2023-06-11T06:48:56.811Z,10.93
2023-06-11T06:49:53.846Z,11.93
2023-06-11T06:50:50.794Z,8.70
2023-06-11T06:51:47.920Z,11.93
2023-06-11T06:52:44.976Z,11.00
2023-06-11T06:53:42.034Z,8.93
2023-06-11T06:54:39.876Z,9.73
2023-06-11T06:55:36.809Z,9.45
2023-06-11T06:56:33.741Z,9.32
2023-06-11T06:57:31.762Z,9.73
2023-06-11T06:58:30.295Z,9.90
2023-06-11T06:59:27.264Z,10.90
2023-06-11T07:00:24.334Z,9.52
2023-06-11T07:01:21.435Z,14.10
2023-06-11T07:02:18.838Z,10.48
2023-06-11T07:03:16.352Z,9.70
2023-06-11T07:04:13.700Z,11.15
2023-06-11T07:05:11.556Z,12.73
2023-06-11T07:06:09.695Z,8.95
2023-06-11T07:07:06.911Z,11.40
2023-06-11T07:08:03.919Z,10.18
2023-06-11T07:09:00.886Z,9.00
2023-06-11T07:09:57.805Z,9.55
2023-06-11T07:10:56.649Z,9.38
2023-06-11T07:11:54.373Z,10.55
2023-06-11T07:12:51.399Z,9.93
2023-06-11T07:13:48.313Z,9.85
2023-06-11T07:14:45.221Z,10.63
2023-06-11T07:15:42.224Z,10.52
2023-06-11T07:16:39.688Z,9.23
2023-06-11T07:17:36.685Z,9.10
2023-06-11T07:18:34.251Z,9.45
2023-06-11T07:19:31.249Z,8.63
2023-06-11T07:20:28.343Z,14.63
2023-06-11T07:21:25.758Z,9.98
2023-06-11T07:22:22.809Z,9.95
2023-06-11T07:23:22.556Z,8.48
2023-06-11T07:24:19.875Z,8.57
2023-06-11T07:25:16.923Z,11.98
2023-06-11T07:26:15.402Z,10.02
2023-06-11T07:27:12.791Z,10.07
2023-06-11T07:28:09.771Z,9.43
2023-06-11T07:29:08.622Z,9.70
2023-06-11T07:30:08.347Z,8.50
2023-06-11T07:31:05.506Z,9.57
2023-06-11T07:32:02.522Z,8.85
2023-06-11T07:33:00.294Z,8.38
2023-06-11T07:33:57.321Z,8.93
2023-06-11T07:34:54.258Z,11.55
2023-06-11T07:35:51.215Z,9.05
2023-06-11T07:36:48.168Z,8.70
2023-06-11T07:37:46.780Z,10.80
2023-06-11T07:38:46.970Z,8.35
2023-06-11T07:39:44.617Z,9.18
2023-06-11T07:40:41.739Z,14.05
2023-06-11T07:41:38.774Z,9.68
2023-06-11T07:42:35.839Z,10.60
2023-06-11T07:43:32.858Z,8.95
2023-06-11T07:44:29.868Z,9.65
2023-06-11T07:45:26.806Z,11.98
2023-06-11T07:46:23.723Z,13.77
2023-06-11T07:47:21.053Z,8.75
2023-06-11T07:48:18.049Z,10.70
2023-06-11T07:49:15.066Z,9.63
2023-06-11T07:50:12.771Z,8.60
2023-06-11T07:51:09.950Z,12.75
2023-06-11T07:52:07.971Z,8.82
2023-06-11T07:53:05.356Z,9.13
2023-06-11T07:54:02.350Z,8.68
2023-06-11T07:54:59.433Z,10.82
2023-06-11T07:55:58.589Z,10.68
2023-06-11T07:56:57.162Z,10.10
2023-06-11T07:57:54.154Z,11.85
2023-06-11T07:58:52.070Z,8.70
2023-06-11T07:59:49.418Z,9.30
2023-06-11T08:00:46.377Z,11.27
2023-06-11T08:01:43.429Z,9.63
2023-06-11T08:02:43.679Z,10.25
2023-06-11T08:03:41.420Z,10.93
2023-06-11T08:04:39.169Z,8.50
2023-06-11T08:05:36.259Z,9.32
2023-06-11T08:06:34.599Z,9.82
2023-06-11T08:07:31.926Z,9.20
2023-06-11T08:08:28.810Z,8.80
2023-06-11T08:09:28.375Z,10.00
2023-06-11T08:10:27.255Z,9.25
2023-06-11T08:11:24.496Z,9.43
2023-06-11T08:12:21.647Z,12.05
2023-06-11T08:13:19.686Z,11.65
2023-06-11T08:14:20.232Z,8.60
2023-06-11T08:15:17.216Z,8.77
2023-06-11T08:16:14.561Z,8.57
2023-06-11T08:17:11.830Z,8.23
2023-06-11T08:18:09.356Z,9.07
2023-06-11T08:19:06.328Z,8.93
2023-06-11T08:20:07.434Z,10.15
2023-06-11T08:21:06.771Z,9.38
2023-06-11T08:22:03.849Z,8.88
2023-06-11T08:23:01.141Z,8.43
2023-06-11T08:23:58.915Z,8.40
2023-06-11T08:24:56.260Z,9.10
2023-06-11T08:25:53.190Z,9.10
2023-06-11T08:26:50.526Z,7.90
2023-06-11T08:27:47.962Z,8.30
2023-06-11T08:28:45.409Z,8.43
2023-06-11T08:29:43.217Z,9.70
2023-06-11T08:30:40.181Z,8.75
2023-06-11T08:31:37.147Z,12.27
2023-06-11T08:32:34.221Z,10.18
2023-06-11T08:33:31.553Z,9.98
2023-06-11T08:34:28.760Z,8.32
2023-06-11T08:35:27.514Z,10.18
2023-06-11T08:36:24.480Z,8.70
2023-06-11T08:37:21.473Z,9.90
2023-06-11T08:38:18.466Z,9.85
2023-06-11T08:39:15.475Z,10.18
2023-06-11T08:40:13.835Z,8.57
2023-06-11T08:41:11.248Z,8.73
2023-06-11T08:42:09.165Z,8.57
2023-06-11T08:43:06.138Z,10.30
2023-06-11T08:44:03.507Z,12.27
2023-06-11T08:45:00.421Z,9.63
2023-06-11T08:45:57.478Z,8.70
2023-06-11T08:46:56.452Z,8.68
2023-06-11T08:47:56.339Z,8.73
2023-06-11T08:49:02.319Z,8.10
2023-06-11T08:50:00.850Z,9.30
2023-06-11T08:51:03.428Z,8.43
2023-06-11T08:52:03.995Z,9.10
2023-06-11T08:54:00.285Z,9.98
2023-06-11T08:54:57.345Z,8.07
2023-06-11T08:55:54.524Z,8.15
2023-06-11T08:56:51.584Z,8.55
2023-06-11T08:57:50.793Z,7.72
2023-06-11T08:58:48.825Z,8.43
2023-06-11T08:59:45.905Z,8.85
2023-06-11T09:00:44.118Z,8.45
2023-06-11T09:01:42.187Z,8.88
2023-06-11T09:02:39.727Z,10.07
2023-06-11T09:03:37.209Z,8.65
2023-06-11T09:04:34.562Z,8.93
2023-06-11T09:05:34.431Z,10.85
2023-06-11T09:06:31.399Z,8.75
2023-06-11T09:07:28.322Z,9.23
2023-06-11T09:08:25.370Z,8.70
2023-06-11T09:09:22.376Z,11.25
2023-06-11T09:10:20.136Z,9.23
2023-06-11T09:11:17.322Z,8.52
2023-06-11T09:12:14.989Z,8.55
2023-06-11T09:13:11.882Z,9.20
2023-06-11T09:14:08.871Z,10.82
2023-06-11T09:15:06.991Z,10.88
2023-06-11T09:16:04.220Z,9.27
2023-06-11T09:17:01.275Z,8.57
2023-06-11T09:17:58.387Z,10.77
2023-06-11T09:18:57.195Z,11.73
2023-06-11T09:19:55.161Z,11.07
2023-06-11T09:21:01.399Z,9.15
2023-06-11T09:21:58.427Z,8.70
2023-06-11T09:22:56.254Z,12.95
2023-06-11T09:23:53.517Z,12.93
2023-06-11T09:24:52.102Z,10.55
2023-06-11T09:25:49.125Z,10.77
2023-06-11T09:26:59.968Z,10.75
2023-06-11T09:27:56.925Z,9.75
2023-06-11T09:29:00.855Z,10.25
2023-06-11T09:29:58.124Z,8.45
2023-06-11T09:30:57.010Z,9.32
2023-06-11T09:32:09.957Z,11.10
2023-06-11T09:33:19.066Z,8.80
2023-06-11T09:34:23.582Z,9.07
2023-06-11T09:35:24.829Z,9.55
2023-06-11T09:36:23.680Z,9.88
2023-06-11T09:37:21.368Z,9.73
2023-06-11T09:38:20.570Z,9.05
2023-06-11T09:39:17.986Z,9.80
2023-06-11T09:40:19.666Z,8.15
2023-06-11T09:41:19.515Z,10.45
2023-06-11T09:42:25.628Z,10.38
2023-06-11T09:43:24.900Z,8.25
2023-06-11T09:44:22.892Z,7.72
2023-06-11T09:45:22.668Z,9.80
2023-06-11T09:46:20.827Z,9.02
2023-06-11T09:47:18.164Z,9.40
2023-06-11T09:48:15.227Z,9.77
2023-06-11T09:49:13.833Z,8.52
2023-06-11T09:50:13.225Z,7.80
2023-06-11T09:51:10.782Z,8.20
2023-06-11T09:52:08.266Z,9.13
2023-06-11T09:53:07.180Z,8.90
2023-06-11T09:54:05.048Z,8.50
2023-06-11T09:55:02.666Z,12.90
2023-06-11T09:56:10.249Z,7.75
2023-06-11T09:57:09.126Z,8.32
2023-06-11T09:58:07.635Z,9.65
2023-06-11T09:59:05.408Z,8.82
2023-06-11T10:00:02.903Z,10.32
2023-06-11T10:01:04.286Z,11.38
2023-06-11T10:02:04.025Z,9.48
2023-06-11T10:03:01.348Z,8.30
2023-06-11T10:03:59.810Z,7.53
2023-06-11T10:04:56.943Z,7.45
2023-06-11T10:05:54.477Z,7.68
2023-06-11T10:06:52.333Z,7.28
2023-06-11T10:08:17.518Z,8.00
2023-06-11T10:09:16.732Z,7.80
2023-06-11T10:10:17.340Z,9.20
2023-06-11T10:11:14.679Z,8.52
2023-06-11T10:12:14.043Z,10.70
2023-06-11T10:13:12.729Z,7.50
2023-06-11T10:14:14.031Z,8.23
2023-06-11T10:15:11.926Z,7.60
2023-06-11T10:16:10.023Z,8.43
2023-06-11T10:17:10.100Z,7.87
2023-06-11T10:18:14.372Z,8.25
2023-06-11T10:19:12.016Z,9.43
2023-06-11T10:20:26.280Z,7.47
2023-06-11T10:21:41.363Z,10.77
2023-06-11T10:22:38.365Z,7.95
2023-06-11T10:23:43.233Z,9.50
2023-06-11T10:24:40.273Z,8.65
2023-06-11T10:25:39.673Z,8.85
2023-06-11T10:26:37.321Z,8.05
2023-06-11T10:27:40.061Z,7.97
2023-06-11T10:28:38.061Z,7.70
2023-06-11T10:29:39.847Z,8.93
2023-06-11T10:30:36.849Z,7.62
2023-06-11T10:31:41.219Z,7.45
2023-06-11T10:32:50.194Z,7.95
2023-06-11T10:33:47.479Z,7.97
2023-06-11T10:34:46.036Z,9.80
2023-06-11T10:35:47.680Z,7.30
2023-06-11T10:36:44.768Z,7.30
2023-06-11T10:37:43.451Z,7.12
2023-06-11T10:38:40.479Z,7.00
2023-06-11T10:39:37.513Z,7.22
2023-06-11T10:40:36.717Z,8.93
2023-06-11T10:41:38.588Z,7.95
2023-06-11T10:42:40.355Z,7.80
2023-06-11T10:43:37.628Z,9.75
2023-06-11T10:44:42.356Z,9.77
2023-06-11T10:45:39.916Z,11.52
2023-06-11T10:46:55.576Z,8.02
2023-06-11T10:47:52.663Z,8.48
2023-06-11T10:48:54.283Z,9.43
2023-06-11T10:49:51.321Z,8.52
2023-06-11T10:50:48.303Z,7.47
2023-06-11T10:51:47.750Z,7.87
2023-06-11T10:53:13.373Z,9.77
2023-06-11T10:54:10.344Z,7.10
2023-06-11T10:55:10.846Z,9.82
2023-06-11T10:56:09.631Z,8.38
2023-06-11T10:57:07.441Z,9.93
2023-06-11T10:58:04.495Z,9.23
2023-06-11T10:59:01.511Z,9.60
2023-06-11T10:59:59.311Z,9.15
2023-06-11T11:00:56.672Z,6.53
2023-06-11T11:01:57.662Z,8.07
2023-06-11T11:02:56.303Z,6.95
2023-06-11T11:03:54.920Z,7.68
2023-06-11T11:04:53.256Z,7.65
2023-06-11T11:05:54.814Z,9.02
2023-06-11T11:06:56.715Z,8.45
2023-06-11T11:07:55.086Z,8.02
2023-06-11T11:08:53.368Z,7.80
2023-06-11T11:09:51.469Z,7.57
2023-06-11T11:11:02.630Z,8.15
2023-06-11T11:12:00.244Z,7.07
2023-06-11T11:12:57.400Z,7.12
2023-06-11T11:13:54.913Z,8.88
2023-06-11T11:14:52.194Z,8.48
2023-06-11T11:15:49.206Z,7.43
2023-06-11T11:16:49.571Z,6.30
2023-06-11T11:17:47.007Z,11.55
2023-06-11T11:18:44.131Z,8.90
2023-06-11T11:19:42.301Z,6.82
2023-06-11T11:20:39.302Z,7.97
2023-06-11T11:21:37.700Z,6.75
2023-06-11T11:22:35.109Z,8.52
2023-06-11T11:23:35.147Z,6.80
2023-06-11T11:24:38.978Z,8.20
2023-06-11T11:25:38.144Z,7.62
2023-06-11T11:26:45.569Z,7.30
2023-06-11T11:27:45.016Z,6.93
2023-06-11T11:28:42.384Z,7.12
2023-06-11T11:29:39.480Z,8.40
2023-06-11T11:30:36.391Z,6.82
2023-06-11T11:31:33.335Z,7.28
2023-06-11T11:32:32.565Z,7.20
2023-06-11T11:33:30.181Z,8.63
2023-06-11T11:34:29.222Z,7.60
2023-06-11T11:35:27.908Z,7.75
2023-06-11T11:36:24.860Z,7.12
2023-06-11T11:37:23.226Z,7.03
2023-06-11T11:38:20.280Z,7.37
2023-06-11T11:39:17.399Z,10.43
2023-06-11T11:40:14.927Z,8.40
2023-06-11T11:41:12.195Z,8.10
2023-06-11T11:42:12.801Z,10.15
2023-06-11T11:44:09.213Z,7.80
2023-06-11T11:45:06.898Z,8.90
2023-06-11T11:46:03.961Z,7.53
2023-06-11T11:47:01.142Z,7.93
2023-06-11T11:48:58.781Z,8.27
2023-06-11T11:49:56.973Z,7.60
2023-06-11T11:51:07.307Z,11.30
2023-06-11T11:52:07.907Z,9.27
2023-06-11T11:54:03.978Z,6.40
2023-06-11T11:55:01.132Z,10.48
2023-06-11T11:56:05.960Z,8.10
2023-06-11T11:57:04.886Z,6.90
2023-06-11T11:58:09.650Z,7.00
2023-06-11T11:59:17.073Z,7.03
2023-06-11T12:00:15.564Z,7.78
2023-06-11T12:01:23.974Z,6.97
2023-06-11T12:02:27.658Z,6.72
2023-06-11T12:03:25.308Z,6.53
2023-06-11T12:04:23.465Z,8.52
2023-06-11T12:05:20.562Z,6.75
2023-06-11T12:06:24.571Z,8.10
2023-06-11T12:07:23.094Z,8.48
2023-06-11T12:08:20.061Z,6.72
2023-06-11T12:09:17.125Z,6.50
2023-06-11T12:10:14.700Z,7.37
2023-06-11T12:11:11.858Z,8.50
2023-06-11T12:12:09.590Z,7.37
2023-06-11T12:13:08.403Z,6.95
2023-06-11T12:14:05.398Z,8.55
2023-06-11T12:15:02.418Z,7.18
2023-06-11T12:16:02.834Z,7.45
2023-06-11T12:17:01.594Z,7.37
2023-06-11T12:17:58.608Z,7.20
2023-06-11T12:19:06.831Z,7.28
2023-06-11T12:20:16.208Z,7.75
2023-06-11T12:21:13.654Z,7.97
2023-06-11T12:22:10.631Z,7.75
2023-06-11T12:23:07.742Z,7.60
2023-06-11T12:24:05.273Z,11.27
2023-06-11T12:25:02.287Z,7.95
2023-06-11T12:26:01.464Z,7.80
2023-06-11T12:26:58.608Z,7.43
2023-06-11T12:27:55.961Z,8.23
2023-06-11T12:28:52.908Z,7.68
2023-06-11T12:29:54.818Z,8.60
2023-06-11T12:30:51.857Z,7.90
2023-06-11T12:31:48.990Z,6.70
2023-06-11T12:32:46.912Z,7.95
2023-06-11T12:33:43.879Z,9.07
2023-06-11T12:34:40.856Z,10.07
2023-06-11T12:35:37.979Z,9.23
2023-06-11T12:36:35.094Z,11.80
2023-06-11T12:37:32.671Z,6.57
2023-06-11T12:38:29.674Z,7.25
2023-06-11T12:39:26.669Z,7.40
2023-06-11T12:40:24.733Z,8.88
2023-06-11T12:41:21.816Z,6.85
2023-06-11T12:42:21.693Z,8.60
2023-06-11T12:43:19.443Z,8.05
2023-06-11T12:44:16.885Z,7.65
2023-06-11T12:45:13.923Z,7.95
2023-06-11T12:46:11.806Z,6.93
2023-06-11T12:47:09.710Z,7.37
2023-06-11T12:48:07.227Z,9.80
2023-06-11T12:49:05.143Z,8.80
2023-06-11T12:50:02.706Z,8.48
2023-06-11T12:50:59.756Z,11.00